sensor_id;sensor_type;location;lat;lon;timestamp;temperature;humidity
20512;DHT22;10414;52.074;5.126;2023-09-30T00:01:45;14.80;99.90
20512;DHT22;10414;52.074;5.126;2023-09-30T00:04:12;15.00;99.90
20512;DHT22;10414;52.074;5.126;2023-09-30T00:06:39;15.10;99.90
20512;DHT22;10414;52.074;5.126;2023-09-30T00:09:07;15.30;99.90
20512;DHT22;10414;52.074;5.126;2023-09-30T00:11:34;15.20;99.90
20512;DHT22;10414;52.074;5.126;2023-09-30T00:14:01;15.10;99.90
20512;DHT22;10414;52.074;5.126;2023-09-30T00:16:28;14.80;99.90
20512;DHT22;10414;52.074;5.126;2023-09-30T00:18:55;14.80;99.90
20512;DHT22;10414;52.074;5.126;2023-09-30T00:21:23;14.50;99.90
20512;DHT22;10414;52.074;5.126;2023-09-30T00:23:52;14.10;99.90
20512;DHT22;10414;52.074;5.126;2023-09-30T00:26:20;14.00;99.90
20512;DHT22;10414;52.074;5.126;2023-09-30T00:28:47;14.20;99.90
20512;DHT22;10414;52.074;5.126;2023-09-30T00:31:14;14.60;99.90
20512;DHT22;10414;52.074;5.126;2023-09-30T00:33:44;14.90;99.90
20512;DHT22;10414;52.074;5.126;2023-09-30T00:36:11;15.00;99.90
20512;DHT22;10414;52.074;5.126;2023-09-30T00:38:38;14.80;99.90
20512;DHT22;10414;52.074;5.126;2023-09-30T00:41:05;14.60;99.90
20512;DHT22;10414;52.074;5.126;2023-09-30T00:43:34;14.70;99.90
20512;DHT22;10414;52.074;5.126;2023-09-30T00:46:02;14.90;99.90
20512;DHT22;10414;52.074;5.126;2023-09-30T00:48:33;15.10;99.90
20512;DHT22;10414;52.074;5.126;2023-09-30T00:51:00;15.20;99.90
20512;DHT22;10414;52.074;5.126;2023-09-30T00:53:27;15.30;99.90
20512;DHT22;10414;52.074;5.126;2023-09-30T00:55:55;15.40;99.90
20512;DHT22;10414;52.074;5.126;2023-09-30T00:58:23;15.40;99.90
20512;DHT22;10414;52.074;5.126;2023-09-30T01:00:58;15.50;99.90
20512;DHT22;10414;52.074;5.126;2023-09-30T01:03:26;15.40;99.90
20512;DHT22;10414;52.074;5.126;2023-09-30T01:05:53;15.40;99.90
20512;DHT22;10414;52.074;5.126;2023-09-30T01:08:20;15.20;99.90
20512;DHT22;10414;52.074;5.126;2023-09-30T01:10:53;14.80;99.90
20512;DHT22;10414;52.074;5.126;2023-09-30T01:13:20;14.60;99.90
20512;DHT22;10414;52.074;5.126;2023-09-30T01:15:47;14.40;99.90
20512;DHT22;10414;52.074;5.126;2023-09-30T01:18:15;14.50;99.90
20512;DHT22;10414;52.074;5.126;2023-09-30T01:20:42;14.90;99.90
20512;DHT22;10414;52.074;5.126;2023-09-30T01:23:20;15.00;99.90
20512;DHT22;10414;52.074;5.126;2023-09-30T01:25:47;15.10;99.90
20512;DHT22;10414;52.074;5.126;2023-09-30T01:28:15;15.00;99.90
20512;DHT22;10414;52.074;5.126;2023-09-30T01:30:42;15.10;99.90
20512;DHT22;10414;52.074;5.126;2023-09-30T01:33:10;15.10;99.90
20512;DHT22;10414;52.074;5.126;2023-09-30T01:35:36;15.00;99.90
20512;DHT22;10414;52.074;5.126;2023-09-30T01:38:07;14.80;99.90
20512;DHT22;10414;52.074;5.126;2023-09-30T01:40:36;14.80;99.90
20512;DHT22;10414;52.074;5.126;2023-09-30T01:43:03;14.70;99.90
20512;DHT22;10414;52.074;5.126;2023-09-30T01:45:30;14.40;99.90
20512;DHT22;10414;52.074;5.126;2023-09-30T01:47:57;14.60;99.90
20512;DHT22;10414;52.074;5.126;2023-09-30T01:50:26;14.80;99.90
20512;DHT22;10414;52.074;5.126;2023-09-30T01:52:53;15.10;99.90
20512;DHT22;10414;52.074;5.126;2023-09-30T01:55:20;15.20;99.90
20512;DHT22;10414;52.074;5.126;2023-09-30T01:57:48;15.10;99.90
20512;DHT22;10414;52.074;5.126;2023-09-30T02:00:15;15.00;99.90
20512;DHT22;10414;52.074;5.126;2023-09-30T02:02:42;15.00;99.90
20512;DHT22;10414;52.074;5.126;2023-09-30T02:05:12;14.80;99.90
20512;DHT22;10414;52.074;5.126;2023-09-30T02:07:39;15.00;99.90
20512;DHT22;10414;52.074;5.126;2023-09-30T02:10:07;15.10;99.90
20512;DHT22;10414;52.074;5.126;2023-09-30T02:12:35;15.20;99.90
20512;DHT22;10414;52.074;5.126;2023-09-30T02:15:05;15.20;99.90
20512;DHT22;10414;52.074;5.126;2023-09-30T02:17:33;14.90;99.90
20512;DHT22;10414;52.074;5.126;2023-09-30T02:20:01;14.60;99.90
20512;DHT22;10414;52.074;5.126;2023-09-30T02:22:31;14.60;99.90
20512;DHT22;10414;52.074;5.126;2023-09-30T02:25:00;14.60;99.90
20512;DHT22;10414;52.074;5.126;2023-09-30T02:27:27;14.40;99.90
20512;DHT22;10414;52.074;5.126;2023-09-30T02:29:54;14.60;99.90
20512;DHT22;10414;52.074;5.126;2023-09-30T02:32:23;14.60;99.90
20512;DHT22;10414;52.074;5.126;2023-09-30T02:34:50;14.60;99.90
20512;DHT22;10414;52.074;5.126;2023-09-30T02:37:17;14.70;99.90
20512;DHT22;10414;52.074;5.126;2023-09-30T02:39:44;14.70;99.90
20512;DHT22;10414;52.074;5.126;2023-09-30T02:42:11;14.50;99.90
20512;DHT22;10414;52.074;5.126;2023-09-30T02:44:38;14.60;99.90
20512;DHT22;10414;52.074;5.126;2023-09-30T02:47:04;14.70;99.90
20512;DHT22;10414;52.074;5.126;2023-09-30T02:49:34;14.60;99.90
20512;DHT22;10414;52.074;5.126;2023-09-30T02:52:01;14.60;99.90
20512;DHT22;10414;52.074;5.126;2023-09-30T02:54:29;14.60;99.90
20512;DHT22;10414;52.074;5.126;2023-09-30T02:56:56;14.60;99.90
20512;DHT22;10414;52.074;5.126;2023-09-30T02:59:23;14.60;99.90
20512;DHT22;10414;52.074;5.126;2023-09-30T03:01:50;14.70;99.90
20512;DHT22;10414;52.074;5.126;2023-09-30T03:04:19;14.80;99.90
20512;DHT22;10414;52.074;5.126;2023-09-30T03:06:51;14.60;99.90
20512;DHT22;10414;52.074;5.126;2023-09-30T03:09:21;14.60;99.90
20512;DHT22;10414;52.074;5.126;2023-09-30T03:11:51;14.60;99.90
20512;DHT22;10414;52.074;5.126;2023-09-30T03:14:18;14.70;99.90
20512;DHT22;10414;52.074;5.126;2023-09-30T03:16:45;14.80;99.90
20512;DHT22;10414;52.074;5.126;2023-09-30T03:19:14;14.80;99.90
20512;DHT22;10414;52.074;5.126;2023-09-30T03:21:42;14.70;99.90
20512;DHT22;10414;52.074;5.126;2023-09-30T03:24:11;14.70;99.90
20512;DHT22;10414;52.074;5.126;2023-09-30T03:26:38;15.00;99.90
20512;DHT22;10414;52.074;5.126;2023-09-30T03:29:07;15.20;99.90
20512;DHT22;10414;52.074;5.126;2023-09-30T03:31:34;15.30;99.90
20512;DHT22;10414;52.074;5.126;2023-09-30T03:34:02;15.20;99.90
20512;DHT22;10414;52.074;5.126;2023-09-30T03:36:29;15.10;99.90
20512;DHT22;10414;52.074;5.126;2023-09-30T03:38:57;15.20;99.90
20512;DHT22;10414;52.074;5.126;2023-09-30T03:41:33;15.30;99.90
20512;DHT22;10414;52.074;5.126;2023-09-30T03:44:02;15.30;99.90
20512;DHT22;10414;52.074;5.126;2023-09-30T03:46:29;15.20;99.90
20512;DHT22;10414;52.074;5.126;2023-09-30T03:48:56;15.30;99.90
20512;DHT22;10414;52.074;5.126;2023-09-30T03:51:24;15.50;99.90
20512;DHT22;10414;52.074;5.126;2023-09-30T03:53:52;15.30;99.90
20512;DHT22;10414;52.074;5.126;2023-09-30T03:56:19;15.30;99.90
20512;DHT22;10414;52.074;5.126;2023-09-30T03:58:49;15.40;99.90
20512;DHT22;10414;52.074;5.126;2023-09-30T04:01:18;15.50;99.90
20512;DHT22;10414;52.074;5.126;2023-09-30T04:03:49;15.40;99.90
20512;DHT22;10414;52.074;5.126;2023-09-30T04:06:20;15.20;99.90
20512;DHT22;10414;52.074;5.126;2023-09-30T04:08:47;15.10;99.90
20512;DHT22;10414;52.074;5.126;2023-09-30T04:11:14;15.10;99.90
20512;DHT22;10414;52.074;5.126;2023-09-30T04:13:44;14.80;99.90
20512;DHT22;10414;52.074;5.126;2023-09-30T04:16:12;15.00;99.90
20512;DHT22;10414;52.074;5.126;2023-09-30T04:18:42;15.00;99.90
20512;DHT22;10414;52.074;5.126;2023-09-30T04:21:09;14.90;99.90
20512;DHT22;10414;52.074;5.126;2023-09-30T04:23:37;15.10;99.90
20512;DHT22;10414;52.074;5.126;2023-09-30T04:26:04;15.20;99.90
20512;DHT22;10414;52.074;5.126;2023-09-30T04:28:30;15.30;99.90
20512;DHT22;10414;52.074;5.126;2023-09-30T04:30:59;15.20;99.90
20512;DHT22;10414;52.074;5.126;2023-09-30T04:33:29;15.30;99.90
20512;DHT22;10414;52.074;5.126;2023-09-30T04:35:59;15.50;99.90
20512;DHT22;10414;52.074;5.126;2023-09-30T04:38:27;15.50;99.90
20512;DHT22;10414;52.074;5.126;2023-09-30T04:40:53;15.50;99.90
20512;DHT22;10414;52.074;5.126;2023-09-30T04:43:20;15.50;99.90
20512;DHT22;10414;52.074;5.126;2023-09-30T04:45:47;15.60;99.90
20512;DHT22;10414;52.074;5.126;2023-09-30T04:48:15;15.50;99.90
20512;DHT22;10414;52.074;5.126;2023-09-30T04:50:44;15.50;99.90
20512;DHT22;10414;52.074;5.126;2023-09-30T04:53:11;15.60;99.90
20512;DHT22;10414;52.074;5.126;2023-09-30T04:55:40;15.50;99.90
20512;DHT22;10414;52.074;5.126;2023-09-30T04:58:13;15.50;99.90
20512;DHT22;10414;52.074;5.126;2023-09-30T05:00:40;15.30;99.90
20512;DHT22;10414;52.074;5.126;2023-09-30T05:03:09;15.20;99.90
20512;DHT22;10414;52.074;5.126;2023-09-30T05:05:38;15.30;99.90
20512;DHT22;10414;52.074;5.126;2023-09-30T05:08:07;15.30;99.90
20512;DHT22;10414;52.074;5.126;2023-09-30T05:10:36;15.50;99.90
20512;DHT22;10414;52.074;5.126;2023-09-30T05:13:04;15.10;99.90
20512;DHT22;10414;52.074;5.126;2023-09-30T05:15:31;14.70;99.90
20512;DHT22;10414;52.074;5.126;2023-09-30T05:18:01;14.50;99.90
20512;DHT22;10414;52.074;5.126;2023-09-30T05:20:30;14.40;99.90
20512;DHT22;10414;52.074;5.126;2023-09-30T05:22:57;14.20;99.90
20512;DHT22;10414;52.074;5.126;2023-09-30T05:25:26;14.20;99.90
20512;DHT22;10414;52.074;5.126;2023-09-30T05:27:53;14.60;99.90
20512;DHT22;10414;52.074;5.126;2023-09-30T05:30:20;14.90;99.90
20512;DHT22;10414;52.074;5.126;2023-09-30T05:32:53;15.00;99.90
20512;DHT22;10414;52.074;5.126;2023-09-30T05:35:22;14.70;99.90
20512;DHT22;10414;52.074;5.126;2023-09-30T05:37:49;14.30;99.90
20512;DHT22;10414;52.074;5.126;2023-09-30T05:40:21;14.40;99.90
20512;DHT22;10414;52.074;5.126;2023-09-30T05:42:54;14.40;99.90
20512;DHT22;10414;52.074;5.126;2023-09-30T05:45:23;14.40;99.90
20512;DHT22;10414;52.074;5.126;2023-09-30T05:47:56;14.00;99.90
20512;DHT22;10414;52.074;5.126;2023-09-30T05:50:28;14.00;99.90
20512;DHT22;10414;52.074;5.126;2023-09-30T05:52:55;14.20;99.90
20512;DHT22;10414;52.074;5.126;2023-09-30T05:55:22;14.00;99.90
20512;DHT22;10414;52.074;5.126;2023-09-30T05:57:51;14.20;99.90
20512;DHT22;10414;52.074;5.126;2023-09-30T06:00:19;14.30;99.90
20512;DHT22;10414;52.074;5.126;2023-09-30T06:02:53;14.50;99.90
20512;DHT22;10414;52.074;5.126;2023-09-30T06:05:21;14.50;99.90
20512;DHT22;10414;52.074;5.126;2023-09-30T06:07:48;14.70;99.90
20512;DHT22;10414;52.074;5.126;2023-09-30T06:10:15;14.90;99.90
20512;DHT22;10414;52.074;5.126;2023-09-30T06:12:44;15.10;99.90
20512;DHT22;10414;52.074;5.126;2023-09-30T06:15:12;15.30;99.90
20512;DHT22;10414;52.074;5.126;2023-09-30T06:17:40;15.10;99.90
20512;DHT22;10414;52.074;5.126;2023-09-30T06:20:08;14.80;99.90
20512;DHT22;10414;52.074;5.126;2023-09-30T06:22:41;14.60;99.90
20512;DHT22;10414;52.074;5.126;2023-09-30T06:25:11;15.10;99.90
20512;DHT22;10414;52.074;5.126;2023-09-30T06:27:39;15.40;99.90
20512;DHT22;10414;52.074;5.126;2023-09-30T06:30:06;15.70;99.90
20512;DHT22;10414;52.074;5.126;2023-09-30T06:32:34;15.70;99.90
20512;DHT22;10414;52.074;5.126;2023-09-30T06:35:04;16.00;99.90
20512;DHT22;10414;52.074;5.126;2023-09-30T06:37:31;16.80;99.90
20512;DHT22;10414;52.074;5.126;2023-09-30T06:39:58;17.90;99.90
20512;DHT22;10414;52.074;5.126;2023-09-30T06:42:29;18.00;99.90
20512;DHT22;10414;52.074;5.126;2023-09-30T06:45:01;18.40;99.90
20512;DHT22;10414;52.074;5.126;2023-09-30T06:47:31;19.20;99.90
20512;DHT22;10414;52.074;5.126;2023-09-30T06:49:59;20.30;99.90
20512;DHT22;10414;52.074;5.126;2023-09-30T06:52:29;21.60;99.90
20512;DHT22;10414;52.074;5.126;2023-09-30T06:54:59;22.20;99.90
20512;DHT22;10414;52.074;5.126;2023-09-30T06:57:26;23.00;99.90
20512;DHT22;10414;52.074;5.126;2023-09-30T06:59:53;22.60;99.90
20512;DHT22;10414;52.074;5.126;2023-09-30T07:02:21;23.90;99.90
20512;DHT22;10414;52.074;5.126;2023-09-30T07:04:48;25.10;99.90
20512;DHT22;10414;52.074;5.126;2023-09-30T07:07:15;26.00;99.90
20512;DHT22;10414;52.074;5.126;2023-09-30T07:09:44;26.60;99.90
20512;DHT22;10414;52.074;5.126;2023-09-30T07:12:11;26.20;99.90
20512;DHT22;10414;52.074;5.126;2023-09-30T07:14:38;26.80;99.90
20512;DHT22;10414;52.074;5.126;2023-09-30T07:17:04;27.80;99.90
20512;DHT22;10414;52.074;5.126;2023-09-30T07:19:31;28.80;99.90
20512;DHT22;10414;52.074;5.126;2023-09-30T07:21:58;28.20;99.90
20512;DHT22;10414;52.074;5.126;2023-09-30T07:24:25;28.90;99.90
20512;DHT22;10414;52.074;5.126;2023-09-30T07:26:53;29.80;99.90
20512;DHT22;10414;52.074;5.126;2023-09-30T07:29:21;30.20;99.50
20512;DHT22;10414;52.074;5.126;2023-09-30T07:31:48;30.10;99.40
20512;DHT22;10414;52.074;5.126;2023-09-30T07:34:16;30.30;98.60
20512;DHT22;10414;52.074;5.126;2023-09-30T07:36:43;30.00;99.00
20512;DHT22;10414;52.074;5.126;2023-09-30T07:39:10;30.30;98.50
20512;DHT22;10414;52.074;5.126;2023-09-30T07:41:37;30.90;98.20
20512;DHT22;10414;52.074;5.126;2023-09-30T07:44:05;30.60;97.80
20512;DHT22;10414;52.074;5.126;2023-09-30T07:46:34;31.40;97.80
20512;DHT22;10414;52.074;5.126;2023-09-30T07:49:01;31.80;96.70
20512;DHT22;10414;52.074;5.126;2023-09-30T07:51:28;31.40;96.70
20512;DHT22;10414;52.074;5.126;2023-09-30T07:53:58;31.50;96.50
20512;DHT22;10414;52.074;5.126;2023-09-30T07:56:25;32.20;95.60
20512;DHT22;10414;52.074;5.126;2023-09-30T07:58:52;33.10;95.10
20512;DHT22;10414;52.074;5.126;2023-09-30T08:01:20;33.40;94.40
20512;DHT22;10414;52.074;5.126;2023-09-30T08:03:47;32.50;94.20
20512;DHT22;10414;52.074;5.126;2023-09-30T08:06:14;32.40;95.00
20512;DHT22;10414;52.074;5.126;2023-09-30T08:08:41;33.60;94.00
20512;DHT22;10414;52.074;5.126;2023-09-30T08:11:11;33.00;93.60
20512;DHT22;10414;52.074;5.126;2023-09-30T08:13:39;31.70;94.20
20512;DHT22;10414;52.074;5.126;2023-09-30T08:16:06;31.30;95.70
20512;DHT22;10414;52.074;5.126;2023-09-30T08:18:36;32.70;94.20
20512;DHT22;10414;52.074;5.126;2023-09-30T08:21:03;33.80;93.30
20512;DHT22;10414;52.074;5.126;2023-09-30T08:23:30;33.30;93.30
20512;DHT22;10414;52.074;5.126;2023-09-30T08:25:58;32.70;93.30
20512;DHT22;10414;52.074;5.126;2023-09-30T08:28:25;33.70;93.20
20512;DHT22;10414;52.074;5.126;2023-09-30T08:30:52;34.20;92.10
20512;DHT22;10414;52.074;5.126;2023-09-30T08:33:23;34.60;91.70
20512;DHT22;10414;52.074;5.126;2023-09-30T08:35:51;34.60;91.00
20512;DHT22;10414;52.074;5.126;2023-09-30T08:38:18;34.50;90.70
20512;DHT22;10414;52.074;5.126;2023-09-30T08:40:45;34.40;90.70
20512;DHT22;10414;52.074;5.126;2023-09-30T08:43:13;33.60;91.20
20512;DHT22;10414;52.074;5.126;2023-09-30T08:45:44;33.00;91.60
20512;DHT22;10414;52.074;5.126;2023-09-30T08:48:13;34.20;90.90
20512;DHT22;10414;52.074;5.126;2023-09-30T08:50:42;33.80;91.40
20512;DHT22;10414;52.074;5.126;2023-09-30T08:53:12;33.40;91.00
20512;DHT22;10414;52.074;5.126;2023-09-30T08:55:42;34.20;90.80
20512;DHT22;10414;52.074;5.126;2023-09-30T08:58:10;33.60;90.90
20512;DHT22;10414;52.074;5.126;2023-09-30T09:00:38;32.40;92.00
20512;DHT22;10414;52.074;5.126;2023-09-30T09:03:06;32.50;92.20
20512;DHT22;10414;52.074;5.126;2023-09-30T09:05:34;32.80;91.90
20512;DHT22;10414;52.074;5.126;2023-09-30T09:08:01;33.40;91.60
20512;DHT22;10414;52.074;5.126;2023-09-30T09:10:29;35.40;90.60
20512;DHT22;10414;52.074;5.126;2023-09-30T09:13:00;35.90;88.30
20512;DHT22;10414;52.074;5.126;2023-09-30T09:15:28;33.30;90.60
20512;DHT22;10414;52.074;5.126;2023-09-30T09:17:55;34.20;91.00
20512;DHT22;10414;52.074;5.126;2023-09-30T09:20:24;34.80;89.90
20512;DHT22;10414;52.074;5.126;2023-09-30T09:22:52;34.70;88.80
20512;DHT22;10414;52.074;5.126;2023-09-30T09:25:21;35.70;88.20
20512;DHT22;10414;52.074;5.126;2023-09-30T09:27:51;36.20;86.70
20512;DHT22;10414;52.074;5.126;2023-09-30T09:30:18;33.80;87.70
20512;DHT22;10414;52.074;5.126;2023-09-30T09:32:53;33.70;90.00
20512;DHT22;10414;52.074;5.126;2023-09-30T09:35:21;33.40;89.30
20512;DHT22;10414;52.074;5.126;2023-09-30T09:37:55;31.90;90.40
20512;DHT22;10414;52.074;5.126;2023-09-30T09:40:23;30.70;92.20
20512;DHT22;10414;52.074;5.126;2023-09-30T09:42:52;28.90;94.10
20512;DHT22;10414;52.074;5.126;2023-09-30T09:45:24;29.40;95.20
20512;DHT22;10414;52.074;5.126;2023-09-30T09:47:52;28.50;95.80
20512;DHT22;10414;52.074;5.126;2023-09-30T09:50:20;27.10;98.80
20512;DHT22;10414;52.074;5.126;2023-09-30T09:52:49;26.90;99.80
20512;DHT22;10414;52.074;5.126;2023-09-30T09:55:17;27.00;99.90
20512;DHT22;10414;52.074;5.126;2023-09-30T09:57:45;27.00;99.90
20512;DHT22;10414;52.074;5.126;2023-09-30T10:00:15;27.10;99.90
20512;DHT22;10414;52.074;5.126;2023-09-30T10:02:44;26.60;99.90
20512;DHT22;10414;52.074;5.126;2023-09-30T10:05:15;25.30;99.90
20512;DHT22;10414;52.074;5.126;2023-09-30T10:07:46;24.70;99.90
20512;DHT22;10414;52.074;5.126;2023-09-30T10:10:17;24.60;99.90
20512;DHT22;10414;52.074;5.126;2023-09-30T10:12:48;24.20;99.90
20512;DHT22;10414;52.074;5.126;2023-09-30T10:15:41;24.30;99.90
20512;DHT22;10414;52.074;5.126;2023-09-30T10:18:08;24.20;99.90
20512;DHT22;10414;52.074;5.126;2023-09-30T10:20:38;23.90;99.90
20512;DHT22;10414;52.074;5.126;2023-09-30T10:23:25;24.50;99.90
20512;DHT22;10414;52.074;5.126;2023-09-30T10:25:53;25.30;99.90
20512;DHT22;10414;52.074;5.126;2023-09-30T10:28:33;25.30;99.90
20512;DHT22;10414;52.074;5.126;2023-09-30T10:31:11;25.60;99.90
20512;DHT22;10414;52.074;5.126;2023-09-30T10:36:40;24.70;99.90
20512;DHT22;10414;52.074;5.126;2023-09-30T10:39:14;25.10;99.90
20512;DHT22;10414;52.074;5.126;2023-09-30T10:41:50;25.60;99.90
20512;DHT22;10414;52.074;5.126;2023-09-30T10:44:33;25.80;99.90
20512;DHT22;10414;52.074;5.126;2023-09-30T10:50:49;24.50;99.90
20512;DHT22;10414;52.074;5.126;2023-09-30T10:53:18;24.10;99.90
20512;DHT22;10414;52.074;5.126;2023-09-30T10:55:45;24.50;99.90
20512;DHT22;10414;52.074;5.126;2023-09-30T10:58:13;24.80;99.90
20512;DHT22;10414;52.074;5.126;2023-09-30T11:00:42;26.00;99.90
20512;DHT22;10414;52.074;5.126;2023-09-30T11:03:20;25.90;99.90
20512;DHT22;10414;52.074;5.126;2023-09-30T11:05:47;25.60;99.90
20512;DHT22;10414;52.074;5.126;2023-09-30T11:08:16;24.80;99.90
20512;DHT22;10414;52.074;5.126;2023-09-30T11:10:47;24.70;99.90
20512;DHT22;10414;52.074;5.126;2023-09-30T11:13:16;25.00;99.90
20512;DHT22;10414;52.074;5.126;2023-09-30T11:15:43;25.40;99.90
20512;DHT22;10414;52.074;5.126;2023-09-30T11:18:14;25.20;99.90
20512;DHT22;10414;52.074;5.126;2023-09-30T11:20:42;24.20;99.90
20512;DHT22;10414;52.074;5.126;2023-09-30T11:23:10;24.00;99.90
20512;DHT22;10414;52.074;5.126;2023-09-30T11:25:38;24.40;99.90
20512;DHT22;10414;52.074;5.126;2023-09-30T11:28:14;24.60;99.90
20512;DHT22;10414;52.074;5.126;2023-09-30T11:30:55;24.30;99.90
20512;DHT22;10414;52.074;5.126;2023-09-30T11:33:22;24.30;99.90
20512;DHT22;10414;52.074;5.126;2023-09-30T11:36:01;23.70;99.90
20512;DHT22;10414;52.074;5.126;2023-09-30T11:38:28;23.50;99.90
20512;DHT22;10414;52.074;5.126;2023-09-30T11:40:59;23.70;99.90
20512;DHT22;10414;52.074;5.126;2023-09-30T11:43:30;24.20;99.90
20512;DHT22;10414;52.074;5.126;2023-09-30T11:46:07;24.40;99.90
20512;DHT22;10414;52.074;5.126;2023-09-30T11:48:37;24.30;99.90
20512;DHT22;10414;52.074;5.126;2023-09-30T11:51:06;24.30;99.90
20512;DHT22;10414;52.074;5.126;2023-09-30T11:53:35;24.20;99.90
20512;DHT22;10414;52.074;5.126;2023-09-30T11:56:02;23.90;99.90
20512;DHT22;10414;52.074;5.126;2023-09-30T11:58:30;23.70;99.90
20512;DHT22;10414;52.074;5.126;2023-09-30T12:00:58;23.20;99.90
20512;DHT22;10414;52.074;5.126;2023-09-30T12:03:27;23.10;99.90
20512;DHT22;10414;52.074;5.126;2023-09-30T12:05:54;22.70;99.90
20512;DHT22;10414;52.074;5.126;2023-09-30T12:08:23;22.40;99.90
20512;DHT22;10414;52.074;5.126;2023-09-30T12:10:50;22.50;99.90
20512;DHT22;10414;52.074;5.126;2023-09-30T12:13:26;22.80;99.90
20512;DHT22;10414;52.074;5.126;2023-09-30T12:15:53;22.80;99.90
20512;DHT22;10414;52.074;5.126;2023-09-30T12:18:21;23.10;99.90
20512;DHT22;10414;52.074;5.126;2023-09-30T12:20:49;22.80;99.90
20512;DHT22;10414;52.074;5.126;2023-09-30T12:23:16;22.80;99.90
20512;DHT22;10414;52.074;5.126;2023-09-30T12:25:45;22.90;99.90
20512;DHT22;10414;52.074;5.126;2023-09-30T12:28:12;22.80;99.90
20512;DHT22;10414;52.074;5.126;2023-09-30T12:30:39;22.80;99.90
20512;DHT22;10414;52.074;5.126;2023-09-30T12:33:07;22.70;99.90
20512;DHT22;10414;52.074;5.126;2023-09-30T12:35:36;22.20;99.90
20512;DHT22;10414;52.074;5.126;2023-09-30T12:38:06;21.90;99.90
20512;DHT22;10414;52.074;5.126;2023-09-30T12:40:33;21.80;99.90
20512;DHT22;10414;52.074;5.126;2023-09-30T12:43:01;21.80;99.90
20512;DHT22;10414;52.074;5.126;2023-09-30T12:45:28;22.00;99.90
20512;DHT22;10414;52.074;5.126;2023-09-30T12:47:56;22.10;99.90
20512;DHT22;10414;52.074;5.126;2023-09-30T12:50:23;22.10;99.90
20512;DHT22;10414;52.074;5.126;2023-09-30T12:52:50;22.40;99.90
20512;DHT22;10414;52.074;5.126;2023-09-30T12:55:17;22.70;99.90
20512;DHT22;10414;52.074;5.126;2023-09-30T12:57:44;22.70;99.90
20512;DHT22;10414;52.074;5.126;2023-09-30T13:00:13;22.40;99.90
20512;DHT22;10414;52.074;5.126;2023-09-30T13:02:41;22.20;99.90
20512;DHT22;10414;52.074;5.126;2023-09-30T13:05:08;22.10;99.90
20512;DHT22;10414;52.074;5.126;2023-09-30T13:07:35;22.00;99.90
20512;DHT22;10414;52.074;5.126;2023-09-30T13:10:06;21.70;99.90
20512;DHT22;10414;52.074;5.126;2023-09-30T13:12:34;21.60;99.90
20512;DHT22;10414;52.074;5.126;2023-09-30T13:15:01;21.60;99.90
20512;DHT22;10414;52.074;5.126;2023-09-30T13:17:31;21.70;99.90
20512;DHT22;10414;52.074;5.126;2023-09-30T13:20:02;21.90;99.90
20512;DHT22;10414;52.074;5.126;2023-09-30T13:22:30;21.50;99.90
20512;DHT22;10414;52.074;5.126;2023-09-30T13:25:00;21.50;99.90
20512;DHT22;10414;52.074;5.126;2023-09-30T13:27:27;21.60;99.90
20512;DHT22;10414;52.074;5.126;2023-09-30T13:29:54;21.70;99.90
20512;DHT22;10414;52.074;5.126;2023-09-30T13:32:24;21.80;99.90
20512;DHT22;10414;52.074;5.126;2023-09-30T13:34:53;21.70;99.90
20512;DHT22;10414;52.074;5.126;2023-09-30T13:37:20;21.80;99.90
20512;DHT22;10414;52.074;5.126;2023-09-30T13:39:48;21.60;99.90
20512;DHT22;10414;52.074;5.126;2023-09-30T13:42:15;21.40;99.90
20512;DHT22;10414;52.074;5.126;2023-09-30T13:44:43;21.60;99.90
20512;DHT22;10414;52.074;5.126;2023-09-30T13:47:10;21.60;99.90
20512;DHT22;10414;52.074;5.126;2023-09-30T13:49:38;21.30;99.90
20512;DHT22;10414;52.074;5.126;2023-09-30T13:52:06;21.40;99.90
20512;DHT22;10414;52.074;5.126;2023-09-30T13:54:33;21.30;99.90
20512;DHT22;10414;52.074;5.126;2023-09-30T13:57:00;21.60;99.90
20512;DHT22;10414;52.074;5.126;2023-09-30T13:59:27;21.50;99.90
20512;DHT22;10414;52.074;5.126;2023-09-30T14:01:54;21.90;99.90
20512;DHT22;10414;52.074;5.126;2023-09-30T14:04:21;22.00;99.90
20512;DHT22;10414;52.074;5.126;2023-09-30T14:06:48;21.90;99.90
20512;DHT22;10414;52.074;5.126;2023-09-30T14:09:16;21.60;99.90
20512;DHT22;10414;52.074;5.126;2023-09-30T14:11:44;21.70;99.90
20512;DHT22;10414;52.074;5.126;2023-09-30T14:14:13;22.30;99.90
20512;DHT22;10414;52.074;5.126;2023-09-30T14:16:40;22.30;99.90
20512;DHT22;10414;52.074;5.126;2023-09-30T14:19:10;22.10;99.90
20512;DHT22;10414;52.074;5.126;2023-09-30T14:21:39;22.10;99.90
20512;DHT22;10414;52.074;5.126;2023-09-30T14:24:06;22.00;99.90
20512;DHT22;10414;52.074;5.126;2023-09-30T14:26:37;22.10;99.90
20512;DHT22;10414;52.074;5.126;2023-09-30T14:29:06;22.00;99.90
20512;DHT22;10414;52.074;5.126;2023-09-30T14:31:33;22.20;99.90
20512;DHT22;10414;52.074;5.126;2023-09-30T14:34:01;21.70;99.90
20512;DHT22;10414;52.074;5.126;2023-09-30T14:36:29;21.50;99.90
20512;DHT22;10414;52.074;5.126;2023-09-30T14:38:58;21.70;99.90
20512;DHT22;10414;52.074;5.126;2023-09-30T14:41:25;21.80;99.90
20512;DHT22;10414;52.074;5.126;2023-09-30T14:43:53;22.20;99.90
20512;DHT22;10414;52.074;5.126;2023-09-30T14:46:20;22.30;99.90
20512;DHT22;10414;52.074;5.126;2023-09-30T14:48:47;22.40;99.90
20512;DHT22;10414;52.074;5.126;2023-09-30T14:51:15;22.20;99.90
20512;DHT22;10414;52.074;5.126;2023-09-30T14:53:42;22.10;99.90
20512;DHT22;10414;52.074;5.126;2023-09-30T14:56:15;22.10;99.90
20512;DHT22;10414;52.074;5.126;2023-09-30T14:58:43;22.40;99.90
20512;DHT22;10414;52.074;5.126;2023-09-30T15:01:11;22.10;99.90
20512;DHT22;10414;52.074;5.126;2023-09-30T15:03:39;21.90;99.90
20512;DHT22;10414;52.074;5.126;2023-09-30T15:06:06;21.90;99.90
20512;DHT22;10414;52.074;5.126;2023-09-30T15:08:34;21.70;99.90
20512;DHT22;10414;52.074;5.126;2023-09-30T15:11:02;21.80;99.90
20512;DHT22;10414;52.074;5.126;2023-09-30T15:13:29;21.80;99.90
20512;DHT22;10414;52.074;5.126;2023-09-30T15:15:57;21.60;99.90
20512;DHT22;10414;52.074;5.126;2023-09-30T15:18:25;21.90;99.90
20512;DHT22;10414;52.074;5.126;2023-09-30T15:20:54;21.30;99.90
20512;DHT22;10414;52.074;5.126;2023-09-30T15:23:21;21.00;99.90
20512;DHT22;10414;52.074;5.126;2023-09-30T15:25:54;21.00;99.90
20512;DHT22;10414;52.074;5.126;2023-09-30T15:28:21;20.90;99.90
20512;DHT22;10414;52.074;5.126;2023-09-30T15:30:50;20.80;99.90
20512;DHT22;10414;52.074;5.126;2023-09-30T15:33:20;20.60;99.90
20512;DHT22;10414;52.074;5.126;2023-09-30T15:35:48;20.40;99.90
20512;DHT22;10414;52.074;5.126;2023-09-30T15:38:16;20.40;99.90
20512;DHT22;10414;52.074;5.126;2023-09-30T15:40:51;20.40;99.90
20512;DHT22;10414;52.074;5.126;2023-09-30T15:43:19;20.20;99.90
20512;DHT22;10414;52.074;5.126;2023-09-30T15:45:46;20.10;99.90